sensor_id;sensor_type;location;lat;lon;timestamp;pressure;altitude;pressure_sealevel;temperature;humidity
71770;BME280;66386;52.122;5.420;2023-04-01T00:01:14;99157.34;;;9.28;98.34
71770;BME280;66386;52.122;5.420;2023-04-01T00:03:41;99159.91;;;9.28;98.32
71770;BME280;66386;52.122;5.420;2023-04-01T00:06:09;99159.00;;;9.29;98.38
71770;BME280;66386;52.122;5.420;2023-04-01T00:08:36;99152.22;;;9.28;98.41
71770;BME280;66386;52.122;5.420;2023-04-01T00:11:02;99154.69;;;9.30;98.54
71770;BME280;66386;52.122;5.420;2023-04-01T00:13:29;99159.00;;;9.29;98.47
71770;BME280;66386;52.122;5.420;2023-04-01T00:15:56;99167.50;;;9.30;98.59
71770;BME280;66386;52.122;5.420;2023-04-01T00:18:23;99164.94;;;9.30;98.60
71770;BME280;66386;52.122;5.420;2023-04-01T00:20:50;99160.72;;;9.29;98.58
71770;BME280;66386;52.122;5.420;2023-04-01T00:23:18;99169.25;;;9.29;98.62
71770;BME280;66386;52.122;5.420;2023-04-01T00:25:45;99170.06;;;9.30;98.58
71770;BME280;66386;52.122;5.420;2023-04-01T00:28:16;99166.59;;;9.31;98.62
71770;BME280;66386;52.122;5.420;2023-04-01T00:30:42;99172.44;;;9.33;98.62
71770;BME280;66386;52.122;5.420;2023-04-01T00:33:09;99168.97;;;9.34;98.45
71770;BME280;66386;52.122;5.420;2023-04-01T00:35:36;99168.16;;;9.33;98.50
71770;BME280;66386;52.122;5.420;2023-04-01T00:38:03;99169.06;;;9.32;98.66
71770;BME280;66386;52.122;5.420;2023-04-01T00:40:31;99170.72;;;9.33;98.52
71770;BME280;66386;52.122;5.420;2023-04-01T00:42:59;99170.72;;;9.33;98.63
71770;BME280;66386;52.122;5.420;2023-04-01T00:45:30;99171.72;;;9.31;98.55
71770;BME280;66386;52.122;5.420;2023-04-01T00:48:01;99172.63;;;9.30;98.49
71770;BME280;66386;52.122;5.420;2023-04-01T00:50:30;99176.94;;;9.29;98.49
71770;BME280;66386;52.122;5.420;2023-04-01T00:53:00;99176.09;;;9.29;98.60
71770;BME280;66386;52.122;5.420;2023-04-01T00:55:28;99177.94;;;9.26;98.43
71770;BME280;66386;52.122;5.420;2023-04-01T00:57:57;99181.41;;;9.25;98.48
71770;BME280;66386;52.122;5.420;2023-04-01T01:00:26;99185.72;;;9.25;98.47
71770;BME280;66386;52.122;5.420;2023-04-01T01:02:52;99182.53;;;9.21;98.52
71770;BME280;66386;52.122;5.420;2023-04-01T01:05:23;99179.22;;;9.19;98.48
71770;BME280;66386;52.122;5.420;2023-04-01T01:10:30;99187.97;;;9.15;98.50
71770;BME280;66386;52.122;5.420;2023-04-01T01:13:17;99192.22;;;9.16;98.32
71770;BME280;66386;52.122;5.420;2023-04-01T01:15:56;99193.19;;;9.14;98.31
71770;BME280;66386;52.122;5.420;2023-04-01T01:18:35;99195.75;;;9.14;98.14
71770;BME280;66386;52.122;5.420;2023-04-01T01:24:13;99192.47;;;9.12;98.12
71770;BME280;66386;52.122;5.420;2023-04-01T01:37:43;99207.28;;;9.06;98.21
71770;BME280;66386;52.122;5.420;2023-04-01T01:40:12;99196.47;;;9.01;98.27
71770;BME280;66386;52.122;5.420;2023-04-01T01:42:45;99205.06;;;9.00;98.34
71770;BME280;66386;52.122;5.420;2023-04-01T01:45:14;99201.03;;;8.96;98.47
71770;BME280;66386;52.122;5.420;2023-04-01T01:47:45;99204.66;;;8.92;98.44
71770;BME280;66386;52.122;5.420;2023-04-01T01:50:13;99207.22;;;8.92;98.38
71770;BME280;66386;52.122;5.420;2023-04-01T01:52:40;99211.63;;;8.90;98.38
71770;BME280;66386;52.122;5.420;2023-04-01T01:55:24;99202.28;;;8.89;98.38
71770;BME280;66386;52.122;5.420;2023-04-01T01:57:52;99204.13;;;8.87;98.53
71770;BME280;66386;52.122;5.420;2023-04-01T02:00:19;99206.00;;;8.83;98.33
71770;BME280;66386;52.122;5.420;2023-04-01T02:02:48;99203.38;;;8.85;98.51
71770;BME280;66386;52.122;5.420;2023-04-01T02:05:19;99204.19;;;8.85;98.42
71770;BME280;66386;52.122;5.420;2023-04-01T02:07:54;99212.06;;;8.82;98.43
71770;BME280;66386;52.122;5.420;2023-04-01T02:10:25;99213.78;;;8.82;98.43
71770;BME280;66386;52.122;5.420;2023-04-01T02:12:56;99212.22;;;8.79;98.43
71770;BME280;66386;52.122;5.420;2023-04-01T02:15:25;99214.88;;;8.78;98.28
71770;BME280;66386;52.122;5.420;2023-04-01T02:17:57;99212.31;;;8.78;98.49
71770;BME280;66386;52.122;5.420;2023-04-01T02:20:24;99219.06;;;8.79;98.55
71770;BME280;66386;52.122;5.420;2023-04-01T02:22:54;99212.22;;;8.79;98.52
71770;BME280;66386;52.122;5.420;2023-04-01T02:25:30;99220.00;;;8.78;98.39
71770;BME280;66386;52.122;5.420;2023-04-01T02:28:02;99224.38;;;8.76;98.40
71770;BME280;66386;52.122;5.420;2023-04-01T02:30:32;99223.66;;;8.73;98.35
71770;BME280;66386;52.122;5.420;2023-04-01T02:33:01;99224.47;;;8.74;98.42
71770;BME280;66386;52.122;5.420;2023-04-01T02:35:28;99215.97;;;8.73;98.40
71770;BME280;66386;52.122;5.420;2023-04-01T02:37:56;99218.69;;;8.70;98.67
71770;BME280;66386;52.122;5.420;2023-04-01T02:40:22;99225.72;;;8.67;98.45
71770;BME280;66386;52.122;5.420;2023-04-01T02:42:49;99226.59;;;8.66;98.23
71770;BME280;66386;52.122;5.420;2023-04-01T02:45:15;99230.00;;;8.66;98.42
71770;BME280;66386;52.122;5.420;2023-04-01T02:47:42;99228.34;;;8.65;98.61
71770;BME280;66386;52.122;5.420;2023-04-01T02:50:09;99233.47;;;8.65;98.61
71770;BME280;66386;52.122;5.420;2023-04-01T02:52:36;99225.88;;;8.64;98.47
71770;BME280;66386;52.122;5.420;2023-04-01T02:55:03;99223.41;;;8.62;98.49
71770;BME280;66386;52.122;5.420;2023-04-01T02:57:30;99227.63;;;8.63;98.45
71770;BME280;66386;52.122;5.420;2023-04-01T02:59:56;99237.03;;;8.63;98.50
71770;BME280;66386;52.122;5.420;2023-04-01T03:02:23;99233.66;;;8.62;98.60
71770;BME280;66386;52.122;5.420;2023-04-01T03:04:50;99233.66;;;8.62;98.62
71770;BME280;66386;52.122;5.420;2023-04-01T03:07:16;99242.13;;;8.63;98.30
71770;BME280;66386;52.122;5.420;2023-04-01T03:09:43;99241.41;;;8.61;98.58
71770;BME280;66386;52.122;5.420;2023-04-01T03:12:09;99238.84;;;8.61;98.65
71770;BME280;66386;52.122;5.420;2023-04-01T03:14:35;99241.50;;;8.59;98.62
71770;BME280;66386;52.122;5.420;2023-04-01T03:17:02;99243.16;;;8.60;98.60
71770;BME280;66386;52.122;5.420;2023-04-01T03:19:28;99241.50;;;8.59;98.66
71770;BME280;66386;52.122;5.420;2023-04-01T03:21:55;99255.19;;;8.58;98.75
71770;BME280;66386;52.122;5.420;2023-04-01T03:24:21;99256.06;;;8.59;98.75
71770;BME280;66386;52.122;5.420;2023-04-01T03:26:48;99253.53;;;8.57;98.69
71770;BME280;66386;52.122;5.420;2023-04-01T03:29:14;99259.50;;;8.58;98.81
71770;BME280;66386;52.122;5.420;2023-04-01T03:31:42;99259.44;;;8.59;98.94
71770;BME280;66386;52.122;5.420;2023-04-01T03:34:08;99263.72;;;8.59;98.87
71770;BME280;66386;52.122;5.420;2023-04-01T03:36:35;99261.97;;;8.59;98.81
71770;BME280;66386;52.122;5.420;2023-04-01T03:39:02;99278.84;;;8.63;98.89
71770;BME280;66386;52.122;5.420;2023-04-01T03:41:29;99271.25;;;8.62;99.12
71770;BME280;66386;52.122;5.420;2023-04-01T03:43:57;99269.59;;;8.61;98.82
71770;BME280;66386;52.122;5.420;2023-04-01T03:46:23;99273.13;;;8.58;99.00
71770;BME280;66386;52.122;5.420;2023-04-01T03:48:50;99274.78;;;8.59;98.94
71770;BME280;66386;52.122;5.420;2023-04-01T03:51:17;99278.09;;;8.61;98.91
71770;BME280;66386;52.122;5.420;2023-04-01T03:53:43;99284.88;;;8.62;99.01
71770;BME280;66386;52.122;5.420;2023-04-01T03:56:10;99278.75;;;8.65;98.89
71770;BME280;66386;52.122;5.420;2023-04-01T03:58:37;99292.47;;;8.64;99.00
71770;BME280;66386;52.122;5.420;2023-04-01T04:01:16;99294.94;;;8.65;99.06
71770;BME280;66386;52.122;5.420;2023-04-01T04:03:43;99287.19;;;8.67;99.18
71770;BME280;66386;52.122;5.420;2023-04-01T04:06:12;99288.91;;;8.66;99.12
71770;BME280;66386;52.122;5.420;2023-04-01T04:08:39;99299.06;;;8.68;98.96
71770;BME280;66386;52.122;5.420;2023-04-01T04:11:06;99291.31;;;8.69;99.03
71770;BME280;66386;52.122;5.420;2023-04-01T04:13:33;99298.91;;;8.71;99.11
71770;BME280;66386;52.122;5.420;2023-04-01T04:15:59;99314.28;;;8.71;99.15
71770;BME280;66386;52.122;5.420;2023-04-01T04:18:26;99307.41;;;8.71;99.18
71770;BME280;66386;52.122;5.420;2023-04-01T04:20:52;99310.81;;;8.72;99.15
71770;BME280;66386;52.122;5.420;2023-04-01T04:23:19;99315.84;;;8.73;99.34
71770;BME280;66386;52.122;5.420;2023-04-01T04:28:22;99319.31;;;8.72;99.25
71770;BME280;66386;52.122;5.420;2023-04-01T04:30:49;99323.47;;;8.75;99.18
71770;BME280;66386;52.122;5.420;2023-04-01T04:33:16;99334.53;;;8.76;99.20
71770;BME280;66386;52.122;5.420;2023-04-01T04:35:42;99327.69;;;8.76;99.10
71770;BME280;66386;52.122;5.420;2023-04-01T04:38:08;99328.59;;;8.75;99.22
71770;BME280;66386;52.122;5.420;2023-04-01T04:40:36;99339.56;;;8.77;99.32
71770;BME280;66386;52.122;5.420;2023-04-01T04:43:03;99339.47;;;8.79;99.35
71770;BME280;66386;52.122;5.420;2023-04-01T04:45:30;99345.44;;;8.79;99.31
71770;BME280;66386;52.122;5.420;2023-04-01T04:47:57;99343.69;;;8.80;99.39
71770;BME280;66386;52.122;5.420;2023-04-01T04:50:24;99343.63;;;8.81;99.45
71770;BME280;66386;52.122;5.420;2023-04-01T04:52:51;99352.97;;;8.82;99.18
71770;BME280;66386;52.122;5.420;2023-04-01T04:55:18;99357.91;;;8.85;99.40
71770;BME280;66386;52.122;5.420;2023-04-01T04:57:44;99360.41;;;8.87;99.46
71770;BME280;66386;52.122;5.420;2023-04-01T05:00:11;99370.56;;;8.88;99.52
71770;BME280;66386;52.122;5.420;2023-04-01T05:02:38;99373.03;;;8.90;99.55
71770;BME280;66386;52.122;5.420;2023-04-01T05:05:05;99367.00;;;8.91;99.52
71770;BME280;66386;52.122;5.420;2023-04-01T05:07:33;99386.59;;;8.92;99.54
71770;BME280;66386;52.122;5.420;2023-04-01T05:09:59;99382.22;;;8.94;99.53
71770;BME280;66386;52.122;5.420;2023-04-01T05:12:26;99392.47;;;8.94;99.66
71770;BME280;66386;52.122;5.420;2023-04-01T05:14:53;99392.47;;;8.94;99.55
71770;BME280;66386;52.122;5.420;2023-04-01T05:17:19;99398.41;;;8.95;99.66
71770;BME280;66386;52.122;5.420;2023-04-01T05:19:46;99397.59;;;8.94;99.74
71770;BME280;66386;52.122;5.420;2023-04-01T05:22:12;99413.78;;;8.95;99.90
71770;BME280;66386;52.122;5.420;2023-04-01T05:24:39;99416.25;;;8.96;99.78
71770;BME280;66386;52.122;5.420;2023-04-01T05:27:05;99416.34;;;8.95;99.89
71770;BME280;66386;52.122;5.420;2023-04-01T05:29:32;99418.81;;;8.96;99.98
71770;BME280;66386;52.122;5.420;2023-04-01T05:31:58;99416.44;;;8.93;100.00
71770;BME280;66386;52.122;5.420;2023-04-01T05:34:25;99425.69;;;8.96;100.00
71770;BME280;66386;52.122;5.420;2023-04-01T05:36:52;99428.25;;;8.96;99.95
71770;BME280;66386;52.122;5.420;2023-04-01T05:39:18;99435.94;;;8.96;99.94
71770;BME280;66386;52.122;5.420;2023-04-01T05:41:44;99436.75;;;8.96;99.91
71770;BME280;66386;52.122;5.420;2023-04-01T05:44:12;99443.63;;;8.96;100.00
71770;BME280;66386;52.122;5.420;2023-04-01T05:46:38;99450.44;;;8.97;100.00
71770;BME280;66386;52.122;5.420;2023-04-01T05:49:05;99461.56;;;8.96;100.00
71770;BME280;66386;52.122;5.420;2023-04-01T05:51:31;99456.44;;;8.96;100.00
71770;BME280;66386;52.122;5.420;2023-04-01T05:53:58;99453.81;;;8.97;100.00
71770;BME280;66386;52.122;5.420;2023-04-01T05:56:24;99455.47;;;8.98;99.98
71770;BME280;66386;52.122;5.420;2023-04-01T05:58:52;99463.06;;;9.00;100.00
71770;BME280;66386;52.122;5.420;2023-04-01T06:01:19;99465.56;;;9.01;100.00
71770;BME280;66386;52.122;5.420;2023-04-01T06:03:46;99470.69;;;9.01;100.00
71770;BME280;66386;52.122;5.420;2023-04-01T06:06:15;99474.06;;;9.02;100.00
71770;BME280;66386;52.122;5.420;2023-04-01T06:08:42;99474.81;;;9.04;100.00
71770;BME280;66386;52.122;5.420;2023-04-01T06:12:01;99479.09;;;9.03;100.00
71770;BME280;66386;52.122;5.420;2023-04-01T06:14:28;99484.22;;;9.03;100.00
71770;BME280;66386;52.122;5.420;2023-04-01T06:34:10;99515.50;;;9.10;100.00
71770;BME280;66386;52.122;5.420;2023-04-01T06:40:02;99518.81;;;9.12;100.00
71770;BME280;66386;52.122;5.420;2023-04-01T06:42:42;99524.78;;;9.13;100.00
71770;BME280;66386;52.122;5.420;2023-04-01T06:47:57;99536.50;;;9.17;100.00
71770;BME280;66386;52.122;5.420;2023-04-01T06:50:52;99542.41;;;9.19;100.00
71770;BME280;66386;52.122;5.420;2023-04-01T06:53:33;99538.16;;;9.18;100.00
71770;BME280;66386;52.122;5.420;2023-04-01T06:56:09;99550.91;;;9.19;100.00
71770;BME280;66386;52.122;5.420;2023-04-01T06:58:44;99556.13;;;9.18;100.00
71770;BME280;66386;52.122;5.420;2023-04-01T07:01:32;99558.69;;;9.18;100.00
71770;BME280;66386;52.122;5.420;2023-04-01T07:06:53;99563.56;;;9.22;100.00
71770;BME280;66386;52.122;5.420;2023-04-01T07:09:31;99566.03;;;9.24;99.88
71770;BME280;66386;52.122;5.420;2023-04-01T07:12:02;99569.53;;;9.23;99.97
71770;BME280;66386;52.122;5.420;2023-04-01T07:14:34;99577.16;;;9.24;99.95
71770;BME280;66386;52.122;5.420;2023-04-01T07:17:15;99579.72;;;9.24;100.00
71770;BME280;66386;52.122;5.420;2023-04-01T07:24:53;99599.66;;;9.35;99.92
71770;BME280;66386;52.122;5.420;2023-04-01T07:27:20;99598.75;;;9.36;99.71
71770;BME280;66386;52.122;5.420;2023-04-01T07:29:46;99607.88;;;9.42;99.67
71770;BME280;66386;52.122;5.420;2023-04-01T07:34:50;99620.63;;;9.43;99.60
71770;BME280;66386;52.122;5.420;2023-04-01T07:40:27;99619.69;;;9.44;99.44
71770;BME280;66386;52.122;5.420;2023-04-01T07:46:16;99627.25;;;9.48;99.33
71770;BME280;66386;52.122;5.420;2023-04-01T07:48:49;99634.16;;;9.46;99.18
71770;BME280;66386;52.122;5.420;2023-04-01T07:51:31;99642.69;;;9.46;99.21
71770;BME280;66386;52.122;5.420;2023-04-01T07:54:06;99640.19;;;9.44;99.24
71770;BME280;66386;52.122;5.420;2023-04-01T07:59:31;99651.31;;;9.45;99.44
71770;BME280;66386;52.122;5.420;2023-04-01T08:02:28;99654.69;;;9.46;99.04
71770;BME280;66386;52.122;5.420;2023-04-01T08:05:18;99671.75;;;9.47;99.18
71770;BME280;66386;52.122;5.420;2023-04-01T08:08:57;99666.63;;;9.47;99.04
71770;BME280;66386;52.122;5.420;2023-04-01T08:11:28;99669.91;;;9.49;99.06
71770;BME280;66386;52.122;5.420;2023-04-01T08:16:53;99676.72;;;9.50;99.24
71770;BME280;66386;52.122;5.420;2023-04-01T08:22:29;99694.50;;;9.53;99.29
71770;BME280;66386;52.122;5.420;2023-04-01T08:25:01;99690.13;;;9.55;99.27
71770;BME280;66386;52.122;5.420;2023-04-01T08:27:41;99698.66;;;9.55;99.28
71770;BME280;66386;52.122;5.420;2023-04-01T08:30:23;99699.63;;;9.53;99.21
71770;BME280;66386;52.122;5.420;2023-04-01T08:32:56;99708.22;;;9.52;99.09
71770;BME280;66386;52.122;5.420;2023-04-01T08:35:38;99716.78;;;9.52;99.20
71770;BME280;66386;52.122;5.420;2023-04-01T08:38:29;99714.13;;;9.54;99.21
71770;BME280;66386;52.122;5.420;2023-04-01T08:40:59;99724.38;;;9.54;99.34
71770;BME280;66386;52.122;5.420;2023-04-01T09:00:30;99740.41;;;9.75;99.21
71770;BME280;66386;52.122;5.420;2023-04-01T09:11:52;99762.75;;;9.90;98.96
71770;BME280;66386;52.122;5.420;2023-04-01T09:17:23;99768.28;;;9.99;98.63
71770;BME280;66386;52.122;5.420;2023-04-01T09:20:16;99770.13;;;9.96;98.55
71770;BME280;66386;52.122;5.420;2023-04-01T09:34:05;99789.75;;;9.98;98.28
71770;BME280;66386;52.122;5.420;2023-04-01T09:36:48;99791.19;;;10.03;98.33
71770;BME280;66386;52.122;5.420;2023-04-01T09:42:29;99804.06;;;10.19;98.09
71770;BME280;66386;52.122;5.420;2023-04-01T09:45:16;99795.94;;;10.27;98.00
71770;BME280;66386;52.122;5.420;2023-04-01T10:12:41;99819.28;;;11.50;95.09
71770;BME280;66386;52.122;5.420;2023-04-01T10:27:21;99830.50;;;11.63;92.44
71770;BME280;66386;52.122;5.420;2023-04-01T10:56:32;99863.59;;;11.55;91.20
71770;BME280;66386;52.122;5.420;2023-04-01T11:11:28;99871.34;;;11.69;89.91
71770;BME280;66386;52.122;5.420;2023-04-01T11:25:07;99896.25;;;11.23;91.86
71770;BME280;66386;52.122;5.420;2023-04-01T11:30:20;99895.50;;;11.21;92.18
71770;BME280;66386;52.122;5.420;2023-04-01T11:33:02;99906.88;;;11.16;91.56
71770;BME280;66386;52.122;5.420;2023-04-01T11:35:42;99910.28;;;11.17;91.61
71770;BME280;66386;52.122;5.420;2023-04-01T11:38:30;99908.78;;;11.29;91.75
71770;BME280;66386;52.122;5.420;2023-04-01T11:46:27;99921.69;;;11.43;89.87
71770;BME280;66386;52.122;5.420;2023-04-01T11:51:58;99929.03;;;11.35;89.95
71770;BME280;66386;52.122;5.420;2023-04-01T12:11:17;99965.38;;;11.13;91.77
71770;BME280;66386;52.122;5.420;2023-04-01T12:23:21;99973.25;;;11.26;92.25
71770;BME280;66386;52.122;5.420;2023-04-01T12:28:36;99976.66;;;11.10;91.53
71770;BME280;66386;52.122;5.420;2023-04-01T12:39:21;99997.94;;;11.12;93.02
71770;BME280;66386;52.122;5.420;2023-04-01T12:45:07;100002.13;;;11.15;93.15
71770;BME280;66386;52.122;5.420;2023-04-01T12:50:34;100003.03;;;11.30;93.59
71770;BME280;66386;52.122;5.420;2023-04-01T12:55:42;100011.44;;;11.49;93.62
71770;BME280;66386;52.122;5.420;2023-04-01T13:25:33;100049.34;;;11.30;92.66
71770;BME280;66386;52.122;5.420;2023-04-01T13:31:26;100058.03;;;11.11;92.82
71770;BME280;66386;52.122;5.420;2023-04-01T13:37:13;100060.56;;;10.95;93.74
71770;BME280;66386;52.122;5.420;2023-04-01T13:42:24;100071.59;;;10.80;94.55
71770;BME280;66386;52.122;5.420;2023-04-01T13:45:38;100072.13;;;10.87;95.04
71770;BME280;66386;52.122;5.420;2023-04-01T13:53:24;100068.63;;;10.88;95.45
71770;BME280;66386;52.122;5.420;2023-04-01T13:56:15;100076.66;;;10.81;95.69
71770;BME280;66386;52.122;5.420;2023-04-01T13:58:45;100071.69;;;10.78;95.76
71770;BME280;66386;52.122;5.420;2023-04-01T14:02:24;100083.72;;;10.78;95.84
71770;BME280;66386;52.122;5.420;2023-04-01T14:07:07;100086.53;;;10.73;96.27
71770;BME280;66386;52.122;5.420;2023-04-01T14:09:52;100106.06;;;10.76;96.23
71770;BME280;66386;52.122;5.420;2023-04-01T14:15:33;100109.75;;;10.53;96.66
71770;BME280;66386;52.122;5.420;2023-04-01T14:27:00;100130.41;;;10.32;97.63
71770;BME280;66386;52.122;5.420;2023-04-01T14:32:38;100139.22;;;10.26;97.82
71770;BME280;66386;52.122;5.420;2023-04-01T14:38:27;100143.91;;;10.18;97.85
71770;BME280;66386;52.122;5.420;2023-04-01T14:41:19;100148.47;;;10.11;97.85
71770;BME280;66386;52.122;5.420;2023-04-01T14:47:04;100163.44;;;10.03;97.70
71770;BME280;66386;52.122;5.420;2023-04-01T14:52:55;100178.84;;;10.03;97.77
71770;BME280;66386;52.122;5.420;2023-04-01T14:55:15;100178.06;;;10.01;97.54
71770;BME280;66386;52.122;5.420;2023-04-01T15:01:00;100190.81;;;10.03;97.92
71770;BME280;66386;52.122;5.420;2023-04-01T15:07:07;100201.00;;;10.04;97.94
71770;BME280;66386;52.122;5.420;2023-04-01T15:12:30;100214.63;;;10.06;97.93
71770;BME280;66386;52.122;5.420;2023-04-01T15:15:13;100223.97;;;10.07;98.01
71770;BME280;66386;52.122;5.420;2023-04-01T15:32:39;100249.06;;;10.21;97.89
71770;BME280;66386;52.122;5.420;2023-04-01T15:38:09;100255.88;;;10.22;97.83
71770;BME280;66386;52.122;5.420;2023-04-01T15:40:48;100258.63;;;10.18;97.67
71770;BME280;66386;52.122;5.420;2023-04-01T15:43:41;100264.88;;;10.12;97.53
71770;BME280;66386;52.122;5.420;2023-04-01T15:46:36;100277.78;;;10.10;97.55
71770;BME280;66386;52.122;5.420;2023-04-01T15:49:10;100289.03;;;10.08;97.34
71770;BME280;66386;52.122;5.420;2023-04-01T15:52:02;100286.72;;;10.02;96.93
71770;BME280;66386;52.122;5.420;2023-04-01T15:54:51;100300.47;;;10.01;96.94
71770;BME280;66386;52.122;5.420;2023-04-01T16:00:14;100314.59;;;9.90;96.91
71770;BME280;66386;52.122;5.420;2023-04-01T16:02:47;100316.50;;;9.85;96.88
71770;BME280;66386;52.122;5.420;2023-04-01T16:13:29;100343.66;;;9.70;96.98
71770;BME280;66386;52.122;5.420;2023-04-01T16:16:13;100338.66;;;9.67;97.12
71770;BME280;66386;52.122;5.420;2023-04-01T16:22:00;100357.63;;;9.63;97.12
71770;BME280;66386;52.122;5.420;2023-04-01T16:24:53;100363.78;;;9.59;97.00
71770;BME280;66386;52.122;5.420;2023-04-01T16:35:04;100380.50;;;9.47;97.18
71770;BME280;66386;52.122;5.420;2023-04-01T16:38:16;100384.06;;;9.43;97.23
71770;BME280;66386;52.122;5.420;2023-04-01T16:41:07;100393.56;;;9.41;97.29
71770;BME280;66386;52.122;5.420;2023-04-01T16:43:52;100401.38;;;9.38;97.37
71770;BME280;66386;52.122;5.420;2023-04-01T16:46:33;100404.97;;;9.34;97.36
71770;BME280;66386;52.122;5.420;2023-04-01T16:49:24;100405.91;;;9.31;97.42
71770;BME280;66386;52.122;5.420;2023-04-01T16:51:52;100411.94;;;9.30;97.48
71770;BME280;66386;52.122;5.420;2023-04-01T16:54:35;100423.22;;;9.26;97.29
71770;BME280;66386;52.122;5.420;2023-04-01T16:59:40;100430.91;;;9.26;97.15
71770;BME280;66386;52.122;5.420;2023-04-01T17:02:14;100438.72;;;9.23;97.14
71770;BME280;66386;52.122;5.420;2023-04-01T17:04:54;100443.94;;;9.20;96.94
71770;BME280;66386;52.122;5.420;2023-04-01T17:07:34;100450.88;;;9.18;96.86
71770;BME280;66386;52.122;5.420;2023-04-01T17:12:52;100463.28;;;9.05;96.80
71770;BME280;66386;52.122;5.420;2023-04-01T17:21:15;100495.38;;;8.91;96.31
71770;BME280;66386;52.122;5.420;2023-04-01T17:23:53;100497.25;;;8.88;96.19
71770;BME280;66386;52.122;5.420;2023-04-01T17:29:56;100510.16;;;8.85;96.09
71770;BME280;66386;52.122;5.420;2023-04-01T17:32:38;100511.16;;;8.81;96.00
71770;BME280;66386;52.122;5.420;2023-04-01T17:39:01;100526.59;;;8.79;96.05
71770;BME280;66386;52.122;5.420;2023-04-01T17:41:36;100530.81;;;8.80;96.07
71770;BME280;66386;52.122;5.420;2023-04-01T17:44:26;100541.97;;;8.79;96.29
71770;BME280;66386;52.122;5.420;2023-04-01T17:47:18;100547.97;;;8.78;96.43
71770;BME280;66386;52.122;5.420;2023-04-01T17:50:07;100553.97;;;8.77;96.21
71770;BME280;66386;52.122;5.420;2023-04-01T17:52:43;100564.31;;;8.74;96.42
71770;BME280;66386;52.122;5.420;2023-04-01T17:57:54;100575.63;;;8.68;96.34
71770;BME280;66386;52.122;5.420;2023-04-01T18:00:39;100577.41;;;8.66;96.10
71770;BME280;66386;52.122;5.420;2023-04-01T18:22:46;100629.22;;;8.48;95.83
71770;BME280;66386;52.122;5.420;2023-04-01T18:25:21;100648.97;;;8.44;95.48
71770;BME280;66386;52.122;5.420;2023-04-01T18:28:18;100658.34;;;8.44;95.64
71770;BME280;66386;52.122;5.420;2023-04-01T18:30:54;100658.44;;;8.41;95.46
71770;BME280;66386;52.122;5.420;2023-04-01T18:33:33;100661.97;;;8.36;95.36
71770;BME280;66386;52.122;5.420;2023-04-01T18:38:55;100678.28;;;8.34;95.60
71770;BME280;66386;52.122;5.420;2023-04-01T18:41:42;100678.34;;;8.32;95.48
71770;BME280;66386;52.122;5.420;2023-04-01T18:44:30;100686.91;;;8.31;95.54
71770;BME280;66386;52.122;5.420;2023-04-01T18:49:58;100712.44;;;8.33;95.78
71770;BME280;66386;52.122;5.420;2023-04-01T18:52:43;100721.06;;;8.30;95.45
71770;BME280;66386;52.122;5.420;2023-04-01T18:55:37;100717.81;;;8.25;95.56
71770;BME280;66386;52.122;5.420;2023-04-01T19:00:49;100730.66;;;8.24;95.74
71770;BME280;66386;52.122;5.420;2023-04-01T19:06:01;100742.69;;;8.20;95.54
71770;BME280;66386;52.122;5.420;2023-04-01T19:08:35;100746.13;;;8.19;95.33
71770;BME280;66386;52.122;5.420;2023-04-01T19:11:26;100752.19;;;8.16;95.21
71770;BME280;66386;52.122;5.420;2023-04-01T19:25:42;100795.81;;;8.13;94.92
71770;BME280;66386;52.122;5.420;2023-04-01T19:28:16;100799.22;;;8.12;95.08
71770;BME280;66386;52.122;5.420;2023-04-01T19:31:04;100800.16;;;8.10;94.79
71770;BME280;66386;52.122;5.420;2023-04-01T19:33:52;100800.28;;;8.05;94.84
71770;BME280;66386;52.122;5.420;2023-04-01T19:36:34;100806.34;;;8.01;94.82
71770;BME280;66386;52.122;5.420;2023-04-01T19:45:03;100827.09;;;7.92;94.67
71770;BME280;66386;52.122;5.420;2023-04-01T19:53:24;100837.41;;;7.89;94.69
71770;BME280;66386;52.122;5.420;2023-04-01T19:56:07;100848.56;;;7.86;94.72
71770;BME280;66386;52.122;5.420;2023-04-01T19:59:08;100862.16;;;7.86;94.58
71770;BME280;66386;52.122;5.420;2023-04-01T20:01:55;100868.25;;;7.82;94.83
71770;BME280;66386;52.122;5.420;2023-04-01T20:04:32;100877.72;;;7.79;94.66
71770;BME280;66386;52.122;5.420;2023-04-01T20:07:16;100879.47;;;7.77;94.68
71770;BME280;66386;52.122;5.420;2023-04-01T20:13:01;100899.38;;;7.65;95.05
71770;BME280;66386;52.122;5.420;2023-04-01T20:15:44;100903.78;;;7.59;94.93
71770;BME280;66386;52.122;5.420;2023-04-01T20:18:34;100900.47;;;7.55;95.16
71770;BME280;66386;52.122;5.420;2023-04-01T20:21:15;100907.31;;;7.53;95.06
71770;BME280;66386;52.122;5.420;2023-04-01T20:23:53;100925.28;;;7.50;95.15
71770;BME280;66386;52.122;5.420;2023-04-01T20:26:25;100926.16;;;7.50;95.27
71770;BME280;66386;52.122;5.420;2023-04-01T20:32:36;100938.13;;;7.48;95.17
71770;BME280;66386;52.122;5.420;2023-04-01T20:37:51;100953.53;;;7.45;94.90
71770;BME280;66386;52.122;5.420;2023-04-01T20:40:33;100955.31;;;7.42;94.83
71770;BME280;66386;52.122;5.420;2023-04-01T20:43:14;100970.69;;;7.40;94.84
71770;BME280;66386;52.122;5.420;2023-04-01T20:51:14;100988.66;;;7.37;94.83
71770;BME280;66386;52.122;5.420;2023-04-01T21:02:35;100999.88;;;7.30;94.50
71770;BME280;66386;52.122;5.420;2023-04-01T21:08:21;101016.06;;;7.30;94.43
71770;BME280;66386;52.122;5.420;2023-04-01T21:14:29;101024.66;;;7.26;94.52
71770;BME280;66386;52.122;5.420;2023-04-01T21:19:24;101029.13;;;7.16;94.52
71770;BME280;66386;52.122;5.420;2023-04-01T21:32:46;101072.25;;;6.88;95.02
71770;BME280;66386;52.122;5.420;2023-04-01T21:36:03;101074.06;;;6.81;95.01
71770;BME280;66386;52.122;5.420;2023-04-01T21:41:48;101092.06;;;6.74;95.39
71770;BME280;66386;52.122;5.420;2023-04-01T21:44:43;101095.50;;;6.73;95.65
71770;BME280;66386;52.122;5.420;2023-04-01T21:53:09;101121.94;;;6.69;96.01
71770;BME280;66386;52.122;5.420;2023-04-01T22:04:31;101139.94;;;6.62;96.13
71770;BME280;66386;52.122;5.420;2023-04-01T22:07:17;101139.13;;;6.60;96.19
71770;BME280;66386;52.122;5.420;2023-04-01T22:10:14;101153.56;;;6.60;96.04
71770;BME280;66386;52.122;5.420;2023-04-01T22:12:54;101146.78;;;6.60;95.81